Time;durP1;ratioP1;P1;durP2;ratioP2;P2;SDS_P1;SDS_P2;PMS_P1;PMS_P2;Temp;Humidity;BMP_temperature;BMP_pressure;BME280_temperature;BME280_humidity;BME280_pressure;Samples;Min_cycle;Max_cycle;Signal;HPM_P1;HPM_P2
2022/01/06 00:01:34;;;;;;;42.88;20.83;;;;;;;;;;5067454;28;20024;-44
2022/01/06 00:04:00;;;;;;;39.33;20.05;;;;;;;;;;5068206;28;20081;-44
2022/01/06 00:06:36;;;;;;;37.40;19.02;;;;;;;;;;5068036;28;21207;-46
2022/01/06 00:09:03;;;;;;;52.85;28.10;;;;;;;;;;5071724;28;21101;-46
2022/01/06 00:11:29;;;;;;;52.70;24.40;;;;;;;;;;5072721;28;20480;-44
2022/01/06 00:24:21;;;;;;;39.72;21.38;;;;;;;;;;5072409;28;20043;-46
2022/01/06 00:26:48;;;;;;;41.22;21.50;;;;;;;;;;5072560;28;20044;-46
2022/01/06 00:29:15;;;;;;;33.33;17.63;;;;;;;;;;5072021;28;20062;-43
2022/01/06 00:31:41;;;;;;;19.77;11.45;;;;;;;;;;5072405;28;20027;-44
2022/01/06 00:34:12;;;;;;;159.02;78.38;;;;;;;;;;5072424;28;20154;-45
2022/01/06 00:36:39;;;;;;;81.72;43.60;;;;;;;;;;5072867;28;20051;-47
2022/01/06 00:39:05;;;;;;;19.30;9.38;;;;;;;;;;5071834;28;20039;-47
2022/01/06 00:41:34;;;;;;;21.38;9.43;;;;;;;;;;5089295;28;20027;-45
2022/01/06 00:44:00;;;;;;;18.08;9.25;;;;;;;;;;5096785;28;20478;-48
2022/01/06 00:46:31;;;;;;;19.77;9.93;;;;;;;;;;5096719;28;20115;-44
2022/01/06 00:48:59;;;;;;;51.15;21.13;;;;;;;;;;5096791;28;20088;-47
2022/01/06 00:51:25;;;;;;;27.80;14.13;;;;;;;;;;5096840;28;20030;-45
2022/01/06 00:53:51;;;;;;;24.25;11.15;;;;;;;;;;5095276;28;20040;-43
2022/01/06 00:56:20;;;;;;;28.77;13.23;;;;;;;;;;5096482;28;20031;-42
2022/01/06 00:58:48;;;;;;;36.55;15.57;;;;;;;;;;5096514;28;20024;-45
2022/01/06 01:01:14;;;;;;;33.47;13.90;;;;;;;;;;5096338;28;20085;-47
2022/01/06 01:03:42;;;;;;;29.73;11.43;;;;;;;;;;5096453;28;20038;-49
2022/01/06 01:06:08;;;;;;;31.45;14.35;;;;;;;;;;5096330;28;20024;-43
2022/01/06 01:08:34;;;;;;;28.13;10.75;;;;;;;;;;5096361;28;20470;-43
2022/01/06 01:11:00;;;;;;;22.23;8.82;;;;;;;;;;5096396;28;20032;-46
2022/01/06 01:13:28;;;;;;;14.02;6.40;;;;;;;;;;5096205;28;20055;-43
2022/01/06 01:15:57;;;;;;;79.78;35.88;;;;;;;;;;5096367;28;20020;-43
2022/01/06 01:18:23;;;;;;;33.40;13.88;;;;;;;;;;5096176;28;20446;-45
2022/01/06 01:20:51;;;;;;;26.55;13.05;;;;;;;;;;5096143;28;20406;-44
2022/01/06 01:23:17;;;;;;;26.52;11.32;;;;;;;;;;5096090;28;20017;-44
2022/01/06 01:25:43;;;;;;;22.58;11.65;;;;;;;;;;5096024;28;20032;-43
2022/01/06 01:28:10;;;;;;;19.70;10.10;;;;;;;;;;5095830;28;20483;-43
2022/01/06 01:30:53;;;;;;;20.08;9.38;;;;;;;;;;5095843;28;20024;-43
2022/01/06 01:33:19;;;;;;;40.50;18.77;;;;;;;;;;5095914;28;20024;-45
2022/01/06 01:35:45;;;;;;;119.03;59.40;;;;;;;;;;5095840;28;20035;-44
2022/01/06 01:38:11;;;;;;;80.30;40.95;;;;;;;;;;5095719;28;20016;-43
2022/01/06 01:40:37;;;;;;;47.83;24.73;;;;;;;;;;5095763;28;20081;-44
2022/01/06 01:43:04;;;;;;;51.30;26.02;;;;;;;;;;5095747;28;20020;-44
2022/01/06 01:45:33;;;;;;;21.60;9.18;;;;;;;;;;5095592;28;20027;-43
2022/01/06 01:48:07;;;;;;;35.72;15.35;;;;;;;;;;5095489;28;20021;-43
2022/01/06 01:50:33;;;;;;;23.15;10.45;;;;;;;;;;5095709;28;20103;-43
2022/01/06 01:52:59;;;;;;;44.33;22.17;;;;;;;;;;5095685;28;20032;-44
2022/01/06 01:55:26;;;;;;;35.10;16.83;;;;;;;;;;5095383;28;20020;-44
2022/01/06 01:57:53;;;;;;;29.10;14.90;;;;;;;;;;5095351;28;20031;-44
2022/01/06 02:00:21;;;;;;;19.17;9.68;;;;;;;;;;5095205;28;20383;-43
2022/01/06 02:02:49;;;;;;;27.40;12.38;;;;;;;;;;5095506;28;20016;-43
2022/01/06 02:05:24;;;;;;;27.15;12.57;;;;;;;;;;5095133;28;20144;-43
2022/01/06 02:07:50;;;;;;;26.52;14.07;;;;;;;;;;5093960;28;20063;-45
2022/01/06 02:10:18;;;;;;;21.85;11.40;;;;;;;;;;5095184;28;20034;-43
2022/01/06 02:12:45;;;;;;;23.05;10.90;;;;;;;;;;5095214;28;20461;-44
2022/01/06 02:15:11;;;;;;;14.18;7.38;;;;;;;;;;5095077;28;20035;-43
2022/01/06 02:17:38;;;;;;;18.27;8.55;;;;;;;;;;5095084;28;20070;-44
2022/01/06 02:20:12;;;;;;;21.35;10.93;;;;;;;;;;5094999;28;20085;-44
2022/01/06 02:22:38;;;;;;;31.17;14.70;;;;;;;;;;5094865;28;20026;-44
2022/01/06 02:25:17;;;;;;;22.25;8.68;;;;;;;;;;5094838;28;20024;-45
2022/01/06 02:27:46;;;;;;;17.42;6.85;;;;;;;;;;5094534;28;20131;-42
2022/01/06 02:30:12;;;;;;;22.20;9.45;;;;;;;;;;5094139;28;20090;-44
2022/01/06 02:32:41;;;;;;;20.52;9.50;;;;;;;;;;5094962;28;20039;-43
2022/01/06 02:35:17;;;;;;;17.83;7.35;;;;;;;;;;5094656;28;20077;-44
2022/01/06 02:37:43;;;;;;;15.02;7.35;;;;;;;;;;5094698;28;20027;-45
2022/01/06 02:40:11;;;;;;;15.73;6.65;;;;;;;;;;5094476;28;20410;-44
2022/01/06 02:42:42;;;;;;;19.10;6.32;;;;;;;;;;5094572;28;20050;-44
2022/01/06 02:45:09;;;;;;;20.40;6.38;;;;;;;;;;5094624;28;20343;-45
2022/01/06 02:47:37;;;;;;;13.52;5.82;;;;;;;;;;5094604;28;20097;-44
2022/01/06 02:50:06;;;;;;;15.02;6.07;;;;;;;;;;5094319;28;20152;-44
2022/01/06 02:52:33;;;;;;;16.30;6.55;;;;;;;;;;5094602;28;20024;-44
2022/01/06 02:54:59;;;;;;;15.73;7.00;;;;;;;;;;5094335;28;20036;-43
2022/01/06 02:57:25;;;;;;;14.07;6.10;;;;;;;;;;5094202;28;20021;-43
2022/01/06 02:59:51;;;;;;;9.93;5.10;;;;;;;;;;5094287;28;20054;-44
2022/01/06 03:02:17;;;;;;;13.65;6.32;;;;;;;;;;5094273;28;20036;-43
2022/01/06 03:04:43;;;;;;;19.20;7.70;;;;;;;;;;5094186;28;20052;-44
2022/01/06 03:07:09;;;;;;;15.23;6.28;;;;;;;;;;5094060;28;20111;-44
2022/01/06 03:09:43;;;;;;;12.73;4.53;;;;;;;;;;5094042;28;20020;-44
2022/01/06 03:12:25;;;;;;;10.10;4.97;;;;;;;;;;5093884;28;20031;-44
2022/01/06 03:14:51;;;;;;;14.73;4.45;;;;;;;;;;5094187;28;20027;-44
2022/01/06 03:17:17;;;;;;;13.07;4.20;;;;;;;;;;5094225;28;20020;-44
2022/01/06 03:19:46;;;;;;;14.88;5.85;;;;;;;;;;5093686;28;20020;-44
2022/01/06 03:22:13;;;;;;;12.75;6.05;;;;;;;;;;5093840;28;20024;-45
2022/01/06 03:24:39;;;;;;;10.55;3.90;;;;;;;;;;5093799;28;20546;-45
2022/01/06 03:27:05;;;;;;;10.68;4.93;;;;;;;;;;5093601;28;20097;-44
2022/01/06 03:29:32;;;;;;;12.73;5.40;;;;;;;;;;5093925;28;20107;-44
2022/01/06 03:32:00;;;;;;;12.60;5.00;;;;;;;;;;5093771;28;20020;-45
2022/01/06 03:34:30;;;;;;;7.03;2.90;;;;;;;;;;5093918;28;20051;-46
2022/01/06 03:36:56;;;;;;;11.52;4.28;;;;;;;;;;5093525;28;20143;-49
2022/01/06 03:39:22;;;;;;;7.88;3.88;;;;;;;;;;5093721;28;20405;-43
2022/01/06 03:41:48;;;;;;;7.85;3.30;;;;;;;;;;5093585;28;20028;-43
2022/01/06 03:44:18;;;;;;;9.10;4.38;;;;;;;;;;5093531;28;20023;-44
2022/01/06 03:46:44;;;;;;;5.40;3.50;;;;;;;;;;5093627;28;20020;-44
2022/01/06 03:49:10;;;;;;;8.88;3.33;;;;;;;;;;5093510;28;20024;-44
2022/01/06 03:51:36;;;;;;;5.20;2.85;;;;;;;;;;5093280;28;20103;-44
2022/01/06 03:54:02;;;;;;;5.65;3.13;;;;;;;;;;5093452;28;20031;-44
2022/01/06 03:56:28;;;;;;;10.45;5.75;;;;;;;;;;5093536;28;20378;-44
2022/01/06 03:58:55;;;;;;;8.85;3.80;;;;;;;;;;5093364;28;20498;-43
2022/01/06 04:01:21;;;;;;;6.90;3.55;;;;;;;;;;5091997;28;20457;-44
2022/01/06 04:03:47;;;;;;;4.80;3.00;;;;;;;;;;5093441;28;20073;-44
2022/01/06 04:06:14;;;;;;;6.35;3.00;;;;;;;;;;5093213;28;20028;-43
2022/01/06 04:08:41;;;;;;;3.83;2.50;;;;;;;;;;5093478;28;20103;-44
2022/01/06 04:11:07;;;;;;;6.18;2.40;;;;;;;;;;5093451;28;20063;-44
2022/01/06 04:13:34;;;;;;;6.05;2.78;;;;;;;;;;5093361;28;20028;-45
2022/01/06 04:16:02;;;;;;;5.82;2.97;;;;;;;;;;5093450;28;20047;-44
2022/01/06 04:18:31;;;;;;;5.40;3.25;;;;;;;;;;5093440;28;20035;-47
2022/01/06 04:20:59;;;;;;;8.65;3.60;;;;;;;;;;5092949;28;20144;-43
2022/01/06 04:23:25;;;;;;;9.00;3.40;;;;;;;;;;5093038;28;20035;-45
2022/01/06 04:25:52;;;;;;;8.80;4.18;;;;;;;;;;5093218;28;20464;-43
2022/01/06 04:28:18;;;;;;;16.08;4.30;;;;;;;;;;5093176;28;20051;-44
2022/01/06 04:30:44;;;;;;;9.05;4.05;;;;;;;;;;5093118;28;20432;-43
2022/01/06 04:33:10;;;;;;;6.80;3.30;;;;;;;;;;5093467;28;20089;-44
2022/01/06 04:35:38;;;;;;;7.00;3.58;;;;;;;;;;5092968;28;20024;-44
2022/01/06 04:38:04;;;;;;;10.05;4.10;;;;;;;;;;5093084;28;20024;-43
2022/01/06 04:40:31;;;;;;;12.98;4.05;;;;;;;;;;5093039;28;20033;-46
2022/01/06 04:42:57;;;;;;;9.35;3.78;;;;;;;;;;5093087;28;20031;-45
2022/01/06 04:45:23;;;;;;;5.75;3.30;;;;;;;;;;5092917;28;20032;-44
2022/01/06 04:47:49;;;;;;;6.18;3.22;;;;;;;;;;5092946;28;20436;-43
2022/01/06 04:50:15;;;;;;;6.78;3.35;;;;;;;;;;5092643;28;20035;-44
2022/01/06 04:52:41;;;;;;;8.65;3.25;;;;;;;;;;5091551;28;20024;-44
2022/01/06 04:55:07;;;;;;;8.95;3.22;;;;;;;;;;5096560;28;20062;-44
2022/01/06 04:57:33;;;;;;;9.10;2.42;;;;;;;;;;5096594;28;20177;-43
2022/01/06 04:59:59;;;;;;;7.07;3.20;;;;;;;;;;5096570;28;20095;-44
2022/01/06 05:02:28;;;;;;;6.13;2.83;;;;;;;;;;5096630;28;20035;-43
2022/01/06 05:04:54;;;;;;;5.90;2.58;;;;;;;;;;5096409;28;20027;-43
2022/01/06 05:07:20;;;;;;;9.38;2.60;;;;;;;;;;5096332;28;20024;-46
2022/01/06 05:09:46;;;;;;;8.90;3.22;;;;;;;;;;5096294;28;20063;-44
2022/01/06 05:12:15;;;;;;;9.75;3.40;;;;;;;;;;5096493;28;20024;-45
2022/01/06 05:14:42;;;;;;;8.65;3.15;;;;;;;;;;5096451;28;20132;-43
2022/01/06 05:17:10;;;;;;;5.85;2.30;;;;;;;;;;5096312;28;20037;-44
2022/01/06 05:19:36;;;;;;;7.57;2.92;;;;;;;;;;5096352;28;20027;-46
2022/01/06 05:22:03;;;;;;;7.70;2.70;;;;;;;;;;5095909;28;20077;-43
2022/01/06 05:24:29;;;;;;;7.45;2.45;;;;;;;;;;5096109;28;20095;-45
2022/01/06 05:26:56;;;;;;;6.13;3.03;;;;;;;;;;5095931;28;20459;-44
2022/01/06 05:29:28;;;;;;;6.22;2.67;;;;;;;;;;5095816;28;20109;-43
2022/01/06 05:31:54;;;;;;;5.32;2.28;;;;;;;;;;5094803;28;20047;-43
2022/01/06 05:34:21;;;;;;;3.90;1.98;;;;;;;;;;5095774;28;20024;-43
2022/01/06 05:36:47;;;;;;;5.47;1.92;;;;;;;;;;5095783;28;20028;-46
2022/01/06 05:39:13;;;;;;;5.65;2.45;;;;;;;;;;5095851;28;20496;-43
2022/01/06 05:41:39;;;;;;;7.82;2.17;;;;;;;;;;5095768;28;20036;-44
2022/01/06 05:44:05;;;;;;;5.60;2.40;;;;;;;;;;5095799;28;20409;-44
2022/01/06 05:46:31;;;;;;;4.75;2.30;;;;;;;;;;5095810;28;20363;-44
2022/01/06 05:48:57;;;;;;;4.45;2.22;;;;;;;;;;5095814;28;20545;-44
2022/01/06 05:51:26;;;;;;;12.45;3.25;;;;;;;;;;5095400;28;20043;-44
2022/01/06 05:53:53;;;;;;;5.40;2.95;;;;;;;;;;5095556;28;20016;-43
2022/01/06 05:56:20;;;;;;;7.65;3.42;;;;;;;;;;5095264;28;20115;-44
2022/01/06 05:58:46;;;;;;;5.70;3.10;;;;;;;;;;5095271;28;20062;-43
2022/01/06 06:01:12;;;;;;;9.10;3.30;;;;;;;;;;5095348;28;20388;-43
2022/01/06 06:03:40;;;;;;;8.52;3.45;;;;;;;;;;5095394;28;20078;-44
2022/01/06 06:06:06;;;;;;;19.05;4.60;;;;;;;;;;5092733;28;20036;-44
2022/01/06 06:08:35;;;;;;;12.35;3.90;;;;;;;;;;5095315;28;20473;-43
2022/01/06 06:11:03;;;;;;;7.47;3.08;;;;;;;;;;5095143;28;20521;-43
2022/01/06 06:13:29;;;;;;;9.20;3.58;;;;;;;;;;5095264;28;20027;-44
2022/01/06 06:15:55;;;;;;;10.27;3.72;;;;;;;;;;5093852;28;20563;-43
2022/01/06 06:18:21;;;;;;;9.35;3.65;;;;;;;;;;5095187;28;20038;-44
2022/01/06 06:20:48;;;;;;;9.52;3.30;;;;;;;;;;5094714;28;20096;-44
2022/01/06 06:23:14;;;;;;;9.55;3.90;;;;;;;;;;5095121;28;20031;-44
2022/01/06 06:25:40;;;;;;;11.23;3.20;;;;;;;;;;5094202;28;20127;-44
2022/01/06 06:28:06;;;;;;;12.65;3.22;;;;;;;;;;5094488;28;20094;-43
2022/01/06 06:30:32;;;;;;;9.68;3.65;;;;;;;;;;5094829;28;20119;-44
2022/01/06 06:33:02;;;;;;;6.57;3.83;;;;;;;;;;5094620;28;20048;-44
2022/01/06 06:35:29;;;;;;;13.68;5.45;;;;;;;;;;5094618;28;20355;-43
2022/01/06 06:37:56;;;;;;;20.52;10.70;;;;;;;;;;5094850;28;20111;-43
2022/01/06 06:40:23;;;;;;;21.55;8.25;;;;;;;;;;5094506;28;20066;-43
2022/01/06 06:42:50;;;;;;;54.40;25.45;;;;;;;;;;5094491;28;20035;-43
2022/01/06 06:45:16;;;;;;;23.20;10.80;;;;;;;;;;5094481;28;20024;-44
2022/01/06 06:47:42;;;;;;;36.75;17.08;;;;;;;;;;5093105;28;20131;-43
2022/01/06 06:50:08;;;;;;;21.75;9.93;;;;;;;;;;5094164;28;20026;-44
2022/01/06 06:52:35;;;;;;;20.95;9.50;;;;;;;;;;5094190;28;20028;-43
2022/01/06 06:55:01;;;;;;;20.80;10.52;;;;;;;;;;5094218;28;20032;-43
2022/01/06 06:57:27;;;;;;;27.70;12.48;;;;;;;;;;5094195;28;20056;-44
2022/01/06 06:59:53;;;;;;;23.92;11.45;;;;;;;;;;5094210;28;20032;-43
2022/01/06 07:02:19;;;;;;;40.33;18.73;;;;;;;;;;5094233;28;20481;-43
2022/01/06 07:04:45;;;;;;;20.13;10.88;;;;;;;;;;5094042;28;20024;-44
2022/01/06 07:07:12;;;;;;;28.52;12.10;;;;;;;;;;5094258;28;20169;-44
2022/01/06 07:09:38;;;;;;;31.30;14.93;;;;;;;;;;5094282;28;20020;-43
2022/01/06 07:12:04;;;;;;;21.17;9.18;;;;;;;;;;5094223;28;20069;-44
2022/01/06 07:14:32;;;;;;;21.95;8.60;;;;;;;;;;5094215;28;20070;-44
2022/01/06 07:16:59;;;;;;;24.55;11.13;;;;;;;;;;5093669;28;20413;-44
2022/01/06 07:19:25;;;;;;;19.45;9.50;;;;;;;;;;5093949;28;20016;-44
2022/01/06 07:21:51;;;;;;;14.82;7.05;;;;;;;;;;5093689;28;20457;-44
2022/01/06 07:24:19;;;;;;;18.52;7.00;;;;;;;;;;5093865;28;20024;-44
2022/01/06 07:26:45;;;;;;;20.02;8.52;;;;;;;;;;5093730;28;20107;-44
2022/01/06 07:29:12;;;;;;;22.05;9.02;;;;;;;;;;5092290;28;20135;-45
2022/01/06 07:31:38;;;;;;;20.15;8.88;;;;;;;;;;5093763;28;20401;-45
2022/01/06 07:34:04;;;;;;;17.52;6.75;;;;;;;;;;5093625;28;20481;-44
2022/01/06 07:36:31;;;;;;;13.57;6.43;;;;;;;;;;5093581;28;20051;-43
2022/01/06 07:38:57;;;;;;;19.77;7.65;;;;;;;;;;5093561;28;20073;-44
2022/01/06 07:41:23;;;;;;;20.65;10.13;;;;;;;;;;5093407;28;20032;-45
2022/01/06 07:43:49;;;;;;;25.55;12.07;;;;;;;;;;5093536;28;20358;-43
2022/01/06 07:46:15;;;;;;;22.67;11.77;;;;;;;;;;5093749;28;20028;-43
2022/01/06 07:48:54;;;;;;;30.63;13.88;;;;;;;;;;5093725;28;20020;-43
2022/01/06 07:51:20;;;;;;;27.75;12.85;;;;;;;;;;5093593;28;20032;-43
2022/01/06 07:53:46;;;;;;;20.58;10.68;;;;;;;;;;5093482;28;20035;-44
2022/01/06 07:56:13;;;;;;;22.02;10.43;;;;;;;;;;5093375;28;20111;-44
2022/01/06 07:58:39;;;;;;;28.10;12.38;;;;;;;;;;5093375;28;20055;-43
2022/01/06 08:01:05;;;;;;;37.97;17.48;;;;;;;;;;5093260;28;20117;-43
2022/01/06 08:03:31;;;;;;;28.13;12.65;;;;;;;;;;5092982;28;20016;-43
2022/01/06 08:05:57;;;;;;;24.10;12.07;;;;;;;;;;5093158;28;20379;-46
2022/01/06 08:08:23;;;;;;;25.10;12.20;;;;;;;;;;5093373;28;20077;-46
2022/01/06 08:10:49;;;;;;;51.50;23.42;;;;;;;;;;5093281;28;20051;-47
2022/01/06 08:13:15;;;;;;;40.30;19.30;;;;;;;;;;5093239;28;20107;-47
2022/01/06 08:15:41;;;;;;;42.50;20.80;;;;;;;;;;5093256;28;20030;-47
2022/01/06 08:18:08;;;;;;;28.25;13.55;;;;;;;;;;5093140;28;20085;-46
2022/01/06 08:20:35;;;;;;;31.95;15.43;;;;;;;;;;5093143;28;20020;-47
2022/01/06 08:23:02;;;;;;;37.45;16.25;;;;;;;;;;5093074;28;20020;-47
2022/01/06 08:25:28;;;;;;;48.97;22.88;;;;;;;;;;5091897;28;20495;-47
2022/01/06 08:27:54;;;;;;;39.70;20.33;;;;;;;;;;5092993;28;20052;-47
2022/01/06 08:30:20;;;;;;;41.30;19.70;;;;;;;;;;5097196;28;20039;-47
2022/01/06 08:32:46;;;;;;;33.05;18.20;;;;;;;;;;5097096;28;20028;-47
2022/01/06 08:35:12;;;;;;;46.22;20.70;;;;;;;;;;5097006;28;20024;-47
2022/01/06 08:37:38;;;;;;;40.15;19.08;;;;;;;;;;5097049;28;20047;-47
2022/01/06 08:40:05;;;;;;;37.63;19.15;;;;;;;;;;5097266;28;20020;-45
2022/01/06 08:42:31;;;;;;;35.95;17.75;;;;;;;;;;5096987;28;20036;-44
2022/01/06 08:44:57;;;;;;;34.22;17.77;;;;;;;;;;5096943;28;20035;-46
2022/01/06 08:47:23;;;;;;;31.48;17.25;;;;;;;;;;5096675;28;20111;-46
2022/01/06 08:49:49;;;;;;;38.72;19.15;;;;;;;;;;5096785;28;20031;-46
2022/01/06 08:52:15;;;;;;;27.17;13.90;;;;;;;;;;5096774;28;20103;-45
2022/01/06 08:54:41;;;;;;;42.15;20.17;;;;;;;;;;5096715;28;20020;-46
2022/01/06 08:57:08;;;;;;;43.53;21.33;;;;;;;;;;5096468;28;20032;-45
2022/01/06 08:59:34;;;;;;;52.55;26.75;;;;;;;;;;5096607;28;20052;-45
2022/01/06 09:02:00;;;;;;;41.10;20.92;;;;;;;;;;5096607;28;20032;-46
2022/01/06 09:04:26;;;;;;;40.75;19.88;;;;;;;;;;5096630;28;20528;-45
2022/01/06 09:06:55;;;;;;;41.85;20.42;;;;;;;;;;5096366;28;20032;-45
2022/01/06 09:09:21;;;;;;;41.85;21.52;;;;;;;;;;5096654;28;20559;-46
2022/01/06 09:11:47;;;;;;;34.90;16.75;;;;;;;;;;5095088;28;20039;-47
2022/01/06 09:14:13;;;;;;;33.83;17.98;;;;;;;;;;5096251;28;20024;-47
2022/01/06 09:16:40;;;;;;;42.22;19.45;;;;;;;;;;5096224;28;20028;-46
2022/01/06 09:19:09;;;;;;;47.40;24.10;;;;;;;;;;5095595;28;20035;-46
2022/01/06 09:21:37;;;;;;;70.53;34.88;;;;;;;;;;5095277;28;20062;-48
2022/01/06 09:24:07;;;;;;;98.70;45.97;;;;;;;;;;5095697;28;20027;-48
2022/01/06 09:26:36;;;;;;;75.25;37.53;;;;;;;;;;5095315;28;20028;-47
2022/01/06 09:29:04;;;;;;;50.80;26.98;;;;;;;;;;5092609;28;20051;-45
2022/01/06 09:31:30;;;;;;;70.65;37.15;;;;;;;;;;5095409;28;20020;-46
2022/01/06 09:33:59;;;;;;;48.45;23.70;;;;;;;;;;5095273;28;20028;-46
2022/01/06 09:36:27;;;;;;;79.07;42.35;;;;;;;;;;5093286;28;20028;-45
2022/01/06 09:38:54;;;;;;;47.53;25.08;;;;;;;;;;5095271;28;20043;-48
2022/01/06 09:41:22;;;;;;;60.35;30.20;;;;;;;;;;5095295;28;20023;-46
2022/01/06 09:43:49;;;;;;;41.47;20.90;;;;;;;;;;5095361;28;20020;-46
2022/01/06 09:46:15;;;;;;;40.88;20.88;;;;;;;;;;5095122;28;20032;-44
2022/01/06 09:48:42;;;;;;;40.28;20.75;;;;;;;;;;5092250;28;20070;-44
2022/01/06 09:51:09;;;;;;;52.05;29.25;;;;;;;;;;5095010;28;20024;-46
2022/01/06 09:53:35;;;;;;;40.63;21.45;;;;;;;;;;5094963;28;20032;-45
2022/01/06 09:56:01;;;;;;;49.90;24.70;;;;;;;;;;5094966;28;20024;-45
2022/01/06 09:58:28;;;;;;;41.13;22.02;;;;;;;;;;5094945;28;20027;-46
2022/01/06 10:00:56;;;;;;;45.63;22.13;;;;;;;;;;5094788;28;20035;-46
2022/01/06 10:03:35;;;;;;;54.50;28.40;;;;;;;;;;5091992;28;20462;-47
2022/01/06 10:06:10;;;;;;;38.03;18.90;;;;;;;;;;5094584;28;20051;-46
2022/01/06 10:08:37;;;;;;;50.95;22.90;;;;;;;;;;5094817;28;20016;-46
2022/01/06 10:11:09;;;;;;;32.95;16.75;;;;;;;;;;5092038;28;20024;-46
2022/01/06 10:13:36;;;;;;;49.90;22.90;;;;;;;;;;5094648;28;20035;-46
2022/01/06 10:16:14;;;;;;;52.65;25.48;;;;;;;;;;5094893;28;20016;-45
2022/01/06 10:18:42;;;;;;;35.15;17.67;;;;;;;;;;5094569;28;20028;-47
2022/01/06 10:21:14;;;;;;;41.83;20.75;;;;;;;;;;5094335;28;20036;-47
2022/01/06 10:23:40;;;;;;;39.08;19.45;;;;;;;;;;5094311;28;20016;-47
2022/01/06 10:26:13;;;;;;;45.30;22.90;;;;;;;;;;5094358;28;20380;-47
2022/01/06 10:28:40;;;;;;;44.10;22.65;;;;;;;;;;5094174;28;20036;-48
2022/01/06 10:31:06;;;;;;;60.35;31.20;;;;;;;;;;5094177;28;20024;-47
2022/01/06 10:33:39;;;;;;;41.80;19.50;;;;;;;;;;5094262;28;20058;-47
2022/01/06 10:36:06;;;;;;;78.05;37.00;;;;;;;;;;5091742;28;20028;-46
2022/01/06 10:38:37;;;;;;;37.72;19.15;;;;;;;;;;5094085;28;20020;-46
2022/01/06 10:41:13;;;;;;;60.55;30.50;;;;;;;;;;5093898;28;20031;-46
2022/01/06 10:43:39;;;;;;;58.67;28.38;;;;;;;;;;5094020;28;20028;-46
2022/01/06 10:46:06;;;;;;;57.85;28.83;;;;;;;;;;5093917;28;20099;-48
2022/01/06 10:48:32;;;;;;;46.50;24.08;;;;;;;;;;5094041;28;20061;-44
2022/01/06 10:51:01;;;;;;;57.78;26.63;;;;;;;;;;5093351;28;20394;-49
2022/01/06 10:53:28;;;;;;;56.42;24.45;;;;;;;;;;5093620;28;20016;-48
2022/01/06 10:55:56;;;;;;;73.47;32.63;;;;;;;;;;5093654;28;20016;-46
2022/01/06 10:58:25;;;;;;;35.65;16.25;;;;;;;;;;5093729;28;20105;-46
2022/01/06 11:01:02;;;;;;;26.88;12.80;;;;;;;;;;5091473;28;20031;-46
2022/01/06 11:03:29;;;;;;;49.67;22.55;;;;;;;;;;5090847;28;20028;-45
2022/01/06 11:05:56;;;;;;;43.20;18.63;;;;;;;;;;5093433;28;20023;-46
2022/01/06 11:08:26;;;;;;;35.53;16.00;;;;;;;;;;5093592;28;20023;-46
2022/01/06 11:13:34;;;;;;;37.88;15.50;;;;;;;;;;5091117;28;20063;-46
2022/01/06 11:16:01;;;;;;;40.60;19.05;;;;;;;;;;5093510;28;20065;-48
2022/01/06 11:18:27;;;;;;;30.30;14.23;;;;;;;;;;5093932;28;20024;-48
2022/01/06 11:21:01;;;;;;;28.83;13.60;;;;;;;;;;5090675;28;20424;-49
2022/01/06 11:23:27;;;;;;;36.03;16.05;;;;;;;;;;5093544;28;20123;-47
2022/01/06 11:26:13;;;;;;;28.08;14.02;;;;;;;;;;5090570;28;20430;-49
2022/01/06 11:28:41;;;;;;;33.00;15.82;;;;;;;;;;5091284;28;20150;-47
2022/01/06 11:31:13;;;;;;;40.30;18.67;;;;;;;;;;5093299;28;20024;-48
2022/01/06 11:33:40;;;;;;;25.52;12.30;;;;;;;;;;5091201;28;20020;-46
2022/01/06 11:36:06;;;;;;;33.28;15.85;;;;;;;;;;5092933;28;20077;-46
2022/01/06 11:38:33;;;;;;;27.40;13.75;;;;;;;;;;5093701;28;20028;-46
2022/01/06 11:41:12;;;;;;;34.15;16.67;;;;;;;;;;5093648;28;20097;-45
2022/01/06 11:43:39;;;;;;;68.03;29.77;;;;;;;;;;5092757;28;20070;-47
2022/01/06 11:46:05;;;;;;;64.60;26.85;;;;;;;;;;5092937;28;20557;-48
2022/01/06 11:48:31;;;;;;;64.88;28.35;;;;;;;;;;5093049;28;20024;-47
2022/01/06 11:50:57;;;;;;;91.07;33.10;;;;;;;;;;5093164;28;20024;-46
2022/01/06 11:53:30;;;;;;;45.33;20.25;;;;;;;;;;5093021;28;20070;-45
2022/01/06 11:55:58;;;;;;;72.15;34.58;;;;;;;;;;5083540;28;20024;-47
2022/01/06 11:58:25;;;;;;;36.17;19.10;;;;;;;;;;5063442;28;20037;-47
2022/01/06 12:00:57;;;;;;;35.60;18.50;;;;;;;;;;5062101;28;20031;-46
2022/01/06 12:03:33;;;;;;;32.90;16.42;;;;;;;;;;5059506;28;20040;-46
2022/01/06 12:05:59;;;;;;;37.55;19.65;;;;;;;;;;5061759;28;20025;-47
2022/01/06 12:08:41;;;;;;;25.20;13.52;;;;;;;;;;5062688;28;20043;-47
2022/01/06 12:11:20;;;;;;;32.45;15.93;;;;;;;;;;5062785;28;20402;-47
2022/01/06 12:13:50;;;;;;;35.97;19.52;;;;;;;;;;5061446;28;20052;-48
2022/01/06 12:16:24;;;;;;;40.17;20.88;;;;;;;;;;5061749;28;20050;-46
2022/01/06 12:18:50;;;;;;;26.65;14.63;;;;;;;;;;5061846;28;20491;-48
2022/01/06 12:21:17;;;;;;;28.95;15.82;;;;;;;;;;5061596;28;20020;-47
2022/01/06 12:23:44;;;;;;;26.50;13.60;;;;;;;;;;5078474;28;20107;-47
2022/01/06 12:26:12;;;;;;;27.33;14.30;;;;;;;;;;5093018;28;20024;-47
2022/01/06 12:28:45;;;;;;;32.53;17.73;;;;;;;;;;5093014;28;20175;-47
2022/01/06 12:31:14;;;;;;;31.48;15.35;;;;;;;;;;5093192;28;20024;-46
2022/01/06 12:33:48;;;;;;;21.92;12.00;;;;;;;;;;5093215;28;20385;-47
2022/01/06 12:36:19;;;;;;;24.15;13.52;;;;;;;;;;5092944;28;20027;-47
2022/01/06 12:38:45;;;;;;;29.77;16.95;;;;;;;;;;5092938;28;20030;-47
2022/01/06 12:41:11;;;;;;;32.67;18.33;;;;;;;;;;5092917;28;20020;-47
2022/01/06 12:43:39;;;;;;;27.23;15.20;;;;;;;;;;5092750;28;20106;-46
2022/01/06 12:46:05;;;;;;;26.70;14.25;;;;;;;;;;5092981;28;20024;-47
2022/01/06 12:48:32;;;;;;;26.33;14.65;;;;;;;;;;5092850;28;20081;-46
2022/01/06 12:50:59;;;;;;;27.88;15.50;;;;;;;;;;5092878;28;20020;-46
2022/01/06 12:53:30;;;;;;;30.05;16.85;;;;;;;;;;5092792;28;20028;-46
2022/01/06 12:55:57;;;;;;;27.38;14.95;;;;;;;;;;5092681;28;20125;-45
2022/01/06 12:58:24;;;;;;;30.58;15.82;;;;;;;;;;5092835;28;20056;-45
2022/01/06 13:00:57;;;;;;;31.50;14.85;;;;;;;;;;5092883;28;20026;-45
2022/01/06 13:03:30;;;;;;;25.65;12.32;;;;;;;;;;5092746;28;20036;-45
2022/01/06 13:05:56;;;;;;;23.17;13.73;;;;;;;;;;5093189;28;20028;-46
2022/01/06 13:08:22;;;;;;;22.75;12.27;;;;;;;;;;5092463;28;20055;-47
2022/01/06 13:10:48;;;;;;;33.00;16.85;;;;;;;;;;5092655;28;20031;-47
2022/01/06 13:13:17;;;;;;;33.20;16.60;;;;;;;;;;5092695;28;20382;-47
2022/01/06 13:15:43;;;;;;;31.08;15.02;;;;;;;;;;5095675;28;20557;-46
2022/01/06 13:18:09;;;;;;;24.73;14.40;;;;;;;;;;5096161;28;20028;-47
2022/01/06 13:20:40;;;;;;;26.50;14.02;;;;;;;;;;5096223;28;20020;-47
2022/01/06 13:23:54;;;;;;;31.30;15.82;;;;;;;;;;5095959;28;20100;-47
2022/01/06 13:26:11;;;;;;;27.58;13.68;;;;;;;;;;5090310;28;20040;-47
2022/01/06 13:28:37;;;;;;;22.95;11.80;;;;;;;;;;5096081;28;20127;-47
2022/01/06 13:31:03;;;;;;;24.77;11.00;;;;;;;;;;5096092;28;20027;-47
2022/01/06 13:33:33;;;;;;;26.80;10.63;;;;;;;;;;5095943;28;20027;-47
2022/01/06 13:36:00;;;;;;;20.58;11.73;;;;;;;;;;5095938;28;20027;-47
2022/01/06 13:38:29;;;;;;;27.95;12.18;;;;;;;;;;5096027;28;20024;-47
2022/01/06 13:41:00;;;;;;;24.00;11.82;;;;;;;;;;5096134;28;20028;-48
2022/01/06 13:43:27;;;;;;;22.40;11.00;;;;;;;;;;5095689;28;20036;-47
2022/01/06 13:45:53;;;;;;;31.90;11.23;;;;;;;;;;5095766;28;20108;-47
2022/01/06 13:51:06;;;;;;;26.45;11.93;;;;;;;;;;5095781;28;20021;-47
2022/01/06 13:53:45;;;;;;;28.70;13.02;;;;;;;;;;5095480;28;20016;-47
2022/01/06 13:56:32;;;;;;;30.40;13.60;;;;;;;;;;5095566;28;20533;-49
2022/01/06 13:59:04;;;;;;;30.30;12.57;;;;;;;;;;5095096;28;20040;-47
2022/01/06 14:01:30;;;;;;;31.13;13.30;;;;;;;;;;5094768;28;20111;-48
2022/01/06 14:03:57;;;;;;;30.65;14.32;;;;;;;;;;5095022;28;20437;-45
2022/01/06 14:06:23;;;;;;;33.50;13.80;;;;;;;;;;5094881;28;20069;-45
2022/01/06 14:08:49;;;;;;;32.95;15.23;;;;;;;;;;5091942;28;20040;-45
2022/01/06 14:11:16;;;;;;;35.88;16.75;;;;;;;;;;5094652;28;20039;-45
2022/01/06 14:13:43;;;;;;;35.67;15.88;;;;;;;;;;5094622;28;20049;-48
2022/01/06 14:16:10;;;;;;;37.22;16.30;;;;;;;;;;5091947;28;20062;-44
2022/01/06 14:18:37;;;;;;;52.03;18.52;;;;;;;;;;5094565;28;20412;-47
2022/01/06 14:21:07;;;;;;;40.58;21.00;;;;;;;;;;5094623;28;20040;-45
2022/01/06 14:23:34;;;;;;;38.35;18.92;;;;;;;;;;5094364;28;20028;-48
2022/01/06 14:26:04;;;;;;;32.60;17.80;;;;;;;;;;5093357;28;20025;-48
2022/01/06 14:28:30;;;;;;;37.70;20.92;;;;;;;;;;5091636;28;20040;-48
2022/01/06 14:30:57;;;;;;;43.10;25.08;;;;;;;;;;5094353;28;20036;-46
2022/01/06 14:33:25;;;;;;;32.42;19.77;;;;;;;;;;5094322;28;20027;-48
2022/01/06 14:35:52;;;;;;;41.05;23.77;;;;;;;;;;5091766;28;20019;-46
2022/01/06 14:38:18;;;;;;;47.72;24.83;;;;;;;;;;5094104;28;20020;-46
2022/01/06 14:40:44;;;;;;;37.22;21.00;;;;;;;;;;5094156;28;20027;-46
2022/01/06 14:43:11;;;;;;;36.70;20.70;;;;;;;;;;5091434;28;20488;-46